Altai, Mongolia
Current Conditions -  °F | °C
As of 9:30 PM on Friday 24 Oct 2014 (Local Time) from ZWWW Reporting Station
Clear Clear  
Wind Chill: 57°   Ceiling: Unl
Heat Index: 57°   Visibility: 6mi
Dew Point: 41°   Wind: 2mph
Humidity: 55%   Direction: NA
Pressure: 30.12"   Gusts: NA
Location:  46.4°N, 96.25°E
Report Text: ZWWW 241330Z VRB01MPS CAVOK 14/05 Q1020 NOSIG
Loading
Personal Weather Stations






























Interactive Weather Map
Tropical Storm Tracking
New forecast layout! Learn more

10-Day Weather Forecast

Advertisements
Track Severe Weather on mobile